createdAt,value
2023-10-19T00:01:29.516Z,5.77
2023-10-19T00:04:00.262Z,5.77
2023-10-19T00:06:27.041Z,5.73
2023-10-19T00:08:54.258Z,5.74
2023-10-19T00:11:25.522Z,5.74
2023-10-19T00:13:52.461Z,5.74
2023-10-19T00:16:23.598Z,5.70
2023-10-19T00:18:50.552Z,5.69
2023-10-19T00:21:27.174Z,5.67
2023-10-19T00:23:58.716Z,5.63
2023-10-19T00:26:26.544Z,5.62
2023-10-19T00:29:13.617Z,5.58
2023-10-19T00:31:42.142Z,5.58
2023-10-19T00:34:09.050Z,5.49
2023-10-19T00:36:36.017Z,5.48
2023-10-19T00:39:14.845Z,5.48
2023-10-19T00:41:42.117Z,5.43
2023-10-19T00:44:12.185Z,5.45
2023-10-19T00:46:42.365Z,5.45
2023-10-19T00:49:10.780Z,5.42
2023-10-19T00:51:38.534Z,5.41
2023-10-19T00:54:12.319Z,5.42
2023-10-19T00:56:42.621Z,5.38
2023-10-19T00:59:15.176Z,5.41
2023-10-19T01:02:05.979Z,5.34
2023-10-19T01:04:35.942Z,5.31
2023-10-19T01:07:05.631Z,5.28
2023-10-19T01:09:36.475Z,5.24
2023-10-19T01:12:24.870Z,5.27
2023-10-19T01:15:16.006Z,5.31
2023-10-19T01:17:54.474Z,5.27
2023-10-19T01:20:31.666Z,5.22
2023-10-19T01:23:12.385Z,5.20
2023-10-19T01:25:57.693Z,5.17
2023-10-19T01:28:41.785Z,5.15
2023-10-19T01:31:18.736Z,5.14
2023-10-19T01:33:45.639Z,5.13
2023-10-19T01:36:13.359Z,5.15
2023-10-19T01:38:40.354Z,5.13
2023-10-19T01:41:14.542Z,5.10
2023-10-19T01:43:43.629Z,5.11
2023-10-19T01:46:14.068Z,5.10
2023-10-19T01:48:44.728Z,5.05
2023-10-19T01:51:12.341Z,5.00
2023-10-19T01:53:44.311Z,5.04
2023-10-19T01:56:17.922Z,5.00
2023-10-19T01:58:48.119Z,4.97
2023-10-19T02:01:16.114Z,4.94
2023-10-19T02:03:43.444Z,4.94
2023-10-19T02:06:27.531Z,4.93
2023-10-19T02:09:24.453Z,4.93
2023-10-19T02:11:54.221Z,4.88
2023-10-19T02:14:21.156Z,4.88
2023-10-19T02:16:57.964Z,4.90
2023-10-19T02:19:26.156Z,4.87
2023-10-19T02:21:57.522Z,4.84
2023-10-19T02:24:24.308Z,4.81
2023-10-19T02:26:55.630Z,4.79
2023-10-19T02:29:27.258Z,4.79
2023-10-19T02:31:58.146Z,4.81
2023-10-19T02:34:25.613Z,4.81
2023-10-19T02:36:52.449Z,4.83
2023-10-19T02:39:19.244Z,4.79
2023-10-19T02:41:49.224Z,4.77
2023-10-19T02:44:20.047Z,4.74
2023-10-19T02:46:47.448Z,4.70
2023-10-19T02:49:15.198Z,4.66
2023-10-19T02:51:45.798Z,4.67
2023-10-19T02:54:31.378Z,4.65
2023-10-19T02:56:59.728Z,4.62
2023-10-19T02:59:29.504Z,4.69
2023-10-19T03:02:18.681Z,4.72
2023-10-19T03:04:47.453Z,4.74
2023-10-19T03:07:14.677Z,4.74
2023-10-19T03:09:49.930Z,4.72
2023-10-19T03:12:18.242Z,4.63
2023-10-19T03:14:47.656Z,4.63
2023-10-19T03:17:14.686Z,4.63
2023-10-19T03:19:41.564Z,4.66
2023-10-19T03:22:09.095Z,4.62
2023-10-19T03:24:45.212Z,4.62
2023-10-19T03:27:24.857Z,4.55
2023-10-19T03:30:15.257Z,4.53
2023-10-19T03:32:41.994Z,4.52
2023-10-19T03:35:09.207Z,4.49
2023-10-19T03:37:36.593Z,4.45
2023-10-19T03:40:08.901Z,4.41
2023-10-19T03:42:41.624Z,4.42
2023-10-19T03:45:14.441Z,4.42
2023-10-19T03:47:44.798Z,4.41
2023-10-19T03:50:21.919Z,4.41
2023-10-19T03:52:48.747Z,4.38
2023-10-19T03:55:24.835Z,4.29
2023-10-19T03:57:53.513Z,4.31
2023-10-19T04:00:20.667Z,4.29
2023-10-19T04:02:48.233Z,4.24
2023-10-19T04:05:21.916Z,4.25
2023-10-19T04:07:51.708Z,4.22
2023-10-19T04:10:36.808Z,4.24
2023-10-19T04:13:04.129Z,4.24
2023-10-19T04:15:34.831Z,4.22
2023-10-19T04:18:01.734Z,4.22
2023-10-19T04:20:37.221Z,4.21
2023-10-19T04:23:17.041Z,4.26
2023-10-19T04:25:47.434Z,4.25
2023-10-19T04:28:21.658Z,4.24
2023-10-19T04:30:49.820Z,4.26
2023-10-19T04:33:18.466Z,4.22
2023-10-19T04:35:45.399Z,4.19
2023-10-19T04:38:12.097Z,4.12
2023-10-19T04:40:38.927Z,4.11
2023-10-19T04:43:06.720Z,4.08
2023-10-19T04:45:33.643Z,4.09
2023-10-19T04:48:00.412Z,4.09
2023-10-19T04:50:27.178Z,4.14
2023-10-19T04:52:54.218Z,4.17
2023-10-19T04:55:21.045Z,4.19
2023-10-19T04:57:47.934Z,4.25
2023-10-19T05:00:17.889Z,4.19
2023-10-19T05:02:44.699Z,4.15
2023-10-19T05:05:11.806Z,4.19
2023-10-19T05:07:39.383Z,4.18
2023-10-19T05:10:06.936Z,4.24
2023-10-19T05:12:33.690Z,4.26
2023-10-19T05:15:00.443Z,4.35
2023-10-19T05:17:28.589Z,4.38
2023-10-19T05:19:55.698Z,4.48
2023-10-19T05:22:23.209Z,4.50
2023-10-19T05:24:50.053Z,4.62
2023-10-19T05:27:17.476Z,4.79
2023-10-19T05:29:44.680Z,5.28
2023-10-19T05:32:11.564Z,5.94
2023-10-19T05:34:38.561Z,6.59
2023-10-19T05:37:06.923Z,6.97
2023-10-19T05:39:35.103Z,7.40
2023-10-19T05:42:02.531Z,7.82
2023-10-19T05:44:32.626Z,8.12
2023-10-19T05:47:00.140Z,8.40
2023-10-19T05:49:27.735Z,8.68
2023-10-19T05:51:54.585Z,9.00
2023-10-19T05:54:24.582Z,9.44
2023-10-19T05:56:51.881Z,9.96
2023-10-19T05:59:18.634Z,10.46
2023-10-19T06:01:48.396Z,11.14
2023-10-19T06:04:16.717Z,11.86
2023-10-19T06:06:44.863Z,12.50
2023-10-19T06:09:11.548Z,13.01
2023-10-19T06:11:44.092Z,13.14
2023-10-19T06:14:11.138Z,13.18
2023-10-19T06:16:37.988Z,13.35
2023-10-19T06:19:05.480Z,13.68
2023-10-19T06:21:34.062Z,14.06
2023-10-19T06:24:00.705Z,14.38
2023-10-19T06:26:27.416Z,14.34
2023-10-19T06:28:59.972Z,14.63
2023-10-19T06:31:27.361Z,14.68
2023-10-19T06:33:54.276Z,14.71
2023-10-19T06:36:21.099Z,14.79
2023-10-19T06:38:47.921Z,14.81
2023-10-19T06:41:15.309Z,15.04
2023-10-19T06:43:42.273Z,15.34
2023-10-19T06:46:13.260Z,15.41
2023-10-19T06:48:40.998Z,15.46
2023-10-19T06:51:08.028Z,15.41
2023-10-19T06:53:35.068Z,15.62
2023-10-19T06:56:02.489Z,15.89
2023-10-19T06:58:29.451Z,16.45
2023-10-19T07:01:01.241Z,17.04
2023-10-19T07:03:29.611Z,17.63
2023-10-19T07:05:57.736Z,18.07
2023-10-19T07:08:24.345Z,18.46
2023-10-19T07:10:51.214Z,18.51
2023-10-19T07:13:18.155Z,18.29
2023-10-19T07:15:50.361Z,18.55
2023-10-19T07:18:17.394Z,18.59
2023-10-19T07:20:44.569Z,18.80
2023-10-19T07:23:11.479Z,18.93
2023-10-19T07:25:44.577Z,19.17
2023-10-19T07:28:13.823Z,19.04
2023-10-19T07:30:41.690Z,19.17
2023-10-19T07:33:10.973Z,19.31
2023-10-19T07:35:43.708Z,19.83
2023-10-19T07:38:11.186Z,20.13
2023-10-19T07:40:37.951Z,20.06
2023-10-19T07:43:09.640Z,20.50
2023-10-19T07:45:37.802Z,20.47
2023-10-19T07:48:08.130Z,20.59
2023-10-19T07:50:35.718Z,20.55
2023-10-19T07:53:02.735Z,20.21
2023-10-19T07:55:30.119Z,20.29
2023-10-19T07:57:58.407Z,20.33
2023-10-19T08:00:25.165Z,20.55
2023-10-19T08:02:52.845Z,20.96
2023-10-19T08:05:19.802Z,21.19
2023-10-19T08:07:49.975Z,21.16
2023-10-19T08:10:17.844Z,21.53
2023-10-19T08:12:45.927Z,21.87
2023-10-19T08:15:14.218Z,22.13
2023-10-19T08:17:41.785Z,22.11
2023-10-19T08:20:33.040Z,22.40
2023-10-19T08:23:02.895Z,22.28
2023-10-19T08:25:39.899Z,22.02
2023-10-19T08:28:17.093Z,22.00
2023-10-19T08:30:46.283Z,22.05
2023-10-19T08:33:15.319Z,22.22
2023-10-19T08:35:42.208Z,21.91
2023-10-19T08:38:12.895Z,22.23
2023-10-19T08:40:39.991Z,22.16
2023-10-19T08:43:08.947Z,22.19
2023-10-19T08:45:36.111Z,21.87
2023-10-19T08:48:03.667Z,21.82
2023-10-19T08:50:34.989Z,22.01
2023-10-19T08:53:07.588Z,21.82
2023-10-19T08:55:49.493Z,21.57
2023-10-19T08:58:20.777Z,21.37
2023-10-19T09:00:49.934Z,21.54
2023-10-19T09:03:18.899Z,21.81
2023-10-19T09:05:49.075Z,21.88
2023-10-19T09:08:20.879Z,21.74
2023-10-19T09:10:48.776Z,21.54
2023-10-19T09:13:25.843Z,21.39
2023-10-19T09:15:57.279Z,21.06
2023-10-19T09:18:25.896Z,21.06
2023-10-19T09:21:09.369Z,20.59
2023-10-19T09:23:37.726Z,20.31
2023-10-19T09:26:05.252Z,20.36
2023-10-19T09:28:35.221Z,20.24
2023-10-19T09:31:02.653Z,20.23
2023-10-19T09:33:30.443Z,20.43
2023-10-19T09:36:02.033Z,20.79
2023-10-19T09:38:28.833Z,20.85
2023-10-19T09:40:56.458Z,20.69
2023-10-19T09:43:37.003Z,20.54
2023-10-19T09:46:07.574Z,20.52
2023-10-19T09:48:36.894Z,20.54
2023-10-19T09:51:04.524Z,20.51
2023-10-19T09:53:31.272Z,20.45
2023-10-19T09:55:59.854Z,20.29
2023-10-19T09:58:30.919Z,20.02
2023-10-19T10:01:00.415Z,19.87
2023-10-19T10:03:46.020Z,19.97
2023-10-19T10:06:13.424Z,19.92
2023-10-19T10:08:40.283Z,19.85
2023-10-19T10:11:27.839Z,19.79
2023-10-19T10:13:56.544Z,19.51
2023-10-19T10:16:27.925Z,19.42
2023-10-19T10:19:02.144Z,19.25
2023-10-19T10:21:30.248Z,19.08
2023-10-19T10:23:57.627Z,18.90
2023-10-19T10:26:31.072Z,19.08
2023-10-19T10:29:20.960Z,19.14
2023-10-19T10:31:48.883Z,19.07
2023-10-19T10:34:34.816Z,19.13
2023-10-19T10:37:04.014Z,18.94
2023-10-19T10:39:35.293Z,18.90
2023-10-19T10:42:06.154Z,19.00
2023-10-19T10:44:44.005Z,19.04
2023-10-19T10:47:12.368Z,19.13
2023-10-19T10:49:51.263Z,19.18
2023-10-19T10:52:34.839Z,19.31
2023-10-19T10:55:14.935Z,19.42
2023-10-19T10:57:42.500Z,19.27
2023-10-19T11:00:19.866Z,18.97
2023-10-19T11:02:47.755Z,18.92
2023-10-19T11:05:15.499Z,18.80
2023-10-19T11:08:11.173Z,18.89
2023-10-19T11:10:38.179Z,19.10
2023-10-19T11:13:08.262Z,18.96
2023-10-19T11:15:38.784Z,18.82
2023-10-19T11:18:11.422Z,18.67
2023-10-19T11:20:38.183Z,18.56
2023-10-19T11:23:05.083Z,18.51
2023-10-19T11:25:33.214Z,18.60
2023-10-19T11:28:00.931Z,18.70
2023-10-19T11:30:34.777Z,18.83
2023-10-19T11:33:02.690Z,18.92
2023-10-19T11:35:31.814Z,18.79
2023-10-19T11:38:03.777Z,18.63
2023-10-19T11:40:30.584Z,18.51
2023-10-19T11:43:02.272Z,18.27
2023-10-19T11:45:30.247Z,18.11
2023-10-19T11:47:58.326Z,18.10
2023-10-19T11:50:25.806Z,17.87
2023-10-19T11:52:54.092Z,17.76
2023-10-19T11:55:22.724Z,17.77
2023-10-19T11:57:49.544Z,17.87
2023-10-19T12:00:23.191Z,17.90
2023-10-19T12:02:50.569Z,17.96
2023-10-19T12:05:17.455Z,18.00
2023-10-19T12:07:46.503Z,17.97
2023-10-19T12:10:16.222Z,17.80
2023-10-19T12:12:58.463Z,17.62
2023-10-19T12:15:28.646Z,17.49
2023-10-19T12:17:55.981Z,17.36
2023-10-19T12:20:25.795Z,17.12
2023-10-19T12:22:56.028Z,16.94
2023-10-19T12:25:39.568Z,16.71
2023-10-19T12:28:14.588Z,16.59
2023-10-19T12:30:42.518Z,16.61
2023-10-19T12:33:12.970Z,16.56
2023-10-19T12:35:53.087Z,16.61
2023-10-19T12:38:21.479Z,16.87
2023-10-19T12:40:48.805Z,17.07
2023-10-19T12:43:16.014Z,17.14
2023-10-19T12:45:43.062Z,17.15
2023-10-19T12:48:12.068Z,17.25
2023-10-19T12:50:39.517Z,17.32
2023-10-19T12:53:07.917Z,17.31
2023-10-19T12:55:35.865Z,17.26
2023-10-19T12:58:08.630Z,17.26
2023-10-19T13:00:37.462Z,17.36
2023-10-19T13:03:08.521Z,17.50
2023-10-19T13:05:38.703Z,17.65
2023-10-19T13:08:14.950Z,17.69
2023-10-19T13:10:45.740Z,17.63
2023-10-19T13:13:16.198Z,17.62
2023-10-19T13:15:47.241Z,17.54
2023-10-19T13:18:29.085Z,17.49
2023-10-19T13:20:56.501Z,17.50
2023-10-19T13:23:23.495Z,17.49
2023-10-19T13:25:53.838Z,17.47
2023-10-19T13:28:21.886Z,17.40
2023-10-19T13:30:52.588Z,17.33
2023-10-19T13:33:19.838Z,17.32
2023-10-19T13:35:46.869Z,17.21
2023-10-19T13:38:15.216Z,17.00
2023-10-19T13:40:42.570Z,16.74
2023-10-19T13:43:11.535Z,16.63
2023-10-19T13:45:38.459Z,16.53
2023-10-19T13:48:05.862Z,16.53
2023-10-19T13:50:33.023Z,16.53
2023-10-19T13:53:01.507Z,16.43
2023-10-19T13:55:28.381Z,16.37
2023-10-19T13:57:55.847Z,16.27
2023-10-19T14:00:46.177Z,16.13
2023-10-19T14:03:15.107Z,16.01
2023-10-19T14:05:49.237Z,15.91
2023-10-19T14:08:19.701Z,15.85
2023-10-19T14:10:46.655Z,15.78
2023-10-19T14:13:13.497Z,15.70
2023-10-19T14:15:40.616Z,15.67
2023-10-19T14:18:07.888Z,15.57
2023-10-19T14:20:35.771Z,15.49
2023-10-19T14:23:06.006Z,15.46
2023-10-19T14:25:32.998Z,15.36
2023-10-19T14:28:02.574Z,15.36
2023-10-19T14:30:29.657Z,15.27
2023-10-19T14:35:24.958Z,15.12
2023-10-19T14:37:53.068Z,15.02
2023-10-19T14:40:22.158Z,14.96
2023-10-19T14:42:49.048Z,14.89
2023-10-19T14:45:17.706Z,14.89
2023-10-19T14:47:49.496Z,14.86
2023-10-19T14:50:16.795Z,14.85
2023-10-19T14:52:43.715Z,14.83
2023-10-19T14:55:11.063Z,14.79
2023-10-19T14:57:41.026Z,14.67
2023-10-19T15:00:17.595Z,14.55
2023-10-19T15:02:47.744Z,14.55
2023-10-19T15:05:14.588Z,14.44
2023-10-19T15:07:45.853Z,14.40
2023-10-19T15:10:13.049Z,14.31
2023-10-19T15:12:42.631Z,14.26
2023-10-19T15:15:12.677Z,14.17
2023-10-19T15:17:39.988Z,14.10
2023-10-19T15:20:07.917Z,14.05
2023-10-19T15:22:34.735Z,13.99
2023-10-19T15:25:02.066Z,13.89
2023-10-19T15:27:29.611Z,13.80
2023-10-19T15:29:57.550Z,13.78
2023-10-19T15:32:25.838Z,13.73
2023-10-19T15:34:53.297Z,13.65
2023-10-19T15:37:21.372Z,13.58
2023-10-19T15:39:48.338Z,13.45
2023-10-19T15:42:15.091Z,13.41
2023-10-19T15:44:42.265Z,13.32
2023-10-19T15:47:13.481Z,13.27
2023-10-19T15:50:00.533Z,13.21
2023-10-19T15:52:32.824Z,13.14
2023-10-19T15:54:59.649Z,13.07
2023-10-19T15:57:26.803Z,13.00
2023-10-19T15:59:53.539Z,12.94
2023-10-19T16:02:20.710Z,12.90
2023-10-19T16:04:47.598Z,12.83
2023-10-19T16:07:15.042Z,12.79
2023-10-19T16:09:41.798Z,12.67
2023-10-19T16:12:09.257Z,12.60
2023-10-19T16:14:40.809Z,12.56
2023-10-19T16:17:07.993Z,12.50
2023-10-19T16:19:34.784Z,12.41
2023-10-19T16:22:01.722Z,12.39
2023-10-19T16:24:30.584Z,12.35
2023-10-19T16:26:57.761Z,12.35
2023-10-19T16:29:24.581Z,12.29
2023-10-19T16:31:51.372Z,12.34
2023-10-19T16:34:21.172Z,12.29
2023-10-19T16:36:48.021Z,12.26
2023-10-19T16:39:17.729Z,12.28
2023-10-19T16:41:47.736Z,12.26
2023-10-19T16:44:14.508Z,12.24
2023-10-19T16:46:42.498Z,12.21
2023-10-19T16:49:09.825Z,12.17
2023-10-19T16:51:41.176Z,12.14
2023-10-19T16:54:11.375Z,12.10
2023-10-19T16:56:41.036Z,11.99
2023-10-19T16:59:09.434Z,11.97
2023-10-19T17:01:36.276Z,11.93
2023-10-19T17:04:03.106Z,11.90
2023-10-19T17:06:29.888Z,11.81
2023-10-19T17:08:57.540Z,11.81
2023-10-19T17:11:24.869Z,11.76
2023-10-19T17:13:56.716Z,11.70
2023-10-19T17:16:23.621Z,11.62
2023-10-19T17:18:50.839Z,11.55
2023-10-19T17:21:17.586Z,11.47
2023-10-19T17:23:44.664Z,11.46
2023-10-19T17:26:11.528Z,11.39
2023-10-19T17:28:38.291Z,11.35
2023-10-19T17:31:06.909Z,11.32
2023-10-19T17:33:33.963Z,11.26
2023-10-19T17:36:00.863Z,11.16
2023-10-19T17:38:27.712Z,11.12
2023-10-19T17:40:55.033Z,11.09
2023-10-19T17:43:21.697Z,11.07
2023-10-19T17:45:48.491Z,11.05
2023-10-19T17:48:15.778Z,11.01
2023-10-19T17:50:43.555Z,10.97
2023-10-19T17:53:10.422Z,10.91
2023-10-19T17:55:38.149Z,10.88
2023-10-19T17:58:05.874Z,10.81
2023-10-19T18:00:33.036Z,10.78
2023-10-19T18:03:00.072Z,10.75
2023-10-19T18:05:27.283Z,10.75
2023-10-19T18:07:54.268Z,10.70
2023-10-19T18:10:21.596Z,10.70
2023-10-19T18:12:48.693Z,10.65
2023-10-19T18:15:21.487Z,10.67
2023-10-19T18:17:48.308Z,10.61
2023-10-19T18:20:17.380Z,10.59
2023-10-19T18:22:44.256Z,10.54
2023-10-19T18:25:14.516Z,10.52
2023-10-19T18:27:42.596Z,10.49
2023-10-19T18:30:11.321Z,10.44
2023-10-19T18:32:39.089Z,10.40
2023-10-19T18:35:07.622Z,10.42
2023-10-19T18:37:34.965Z,10.42
2023-10-19T18:40:02.166Z,10.42
2023-10-19T18:42:29.648Z,10.40
2023-10-19T18:44:56.601Z,10.39
2023-10-19T18:47:23.881Z,10.36
2023-10-19T18:49:53.775Z,10.37
2023-10-19T18:52:20.512Z,10.37
2023-10-19T18:54:47.315Z,10.36
2023-10-19T18:57:14.106Z,10.34
2023-10-19T18:59:40.996Z,10.33
2023-10-19T19:02:07.977Z,10.34
2023-10-19T19:04:35.121Z,10.32
2023-10-19T19:07:02.084Z,10.30
2023-10-19T19:09:29.168Z,10.26
2023-10-19T19:11:56.747Z,10.25
2023-10-19T19:14:23.588Z,10.16
2023-10-19T19:16:52.466Z,10.15
2023-10-19T19:19:19.370Z,10.16
2023-10-19T19:21:46.064Z,10.19
2023-10-19T19:24:12.814Z,10.13
2023-10-19T19:26:39.468Z,10.15
2023-10-19T19:29:07.259Z,10.10
2023-10-19T19:31:35.684Z,10.12
2023-10-19T19:34:03.964Z,10.12
2023-10-19T19:36:31.080Z,10.12
2023-10-19T19:38:58.267Z,10.16
2023-10-19T19:41:25.192Z,10.12
2023-10-19T19:43:53.469Z,10.12
2023-10-19T19:46:20.289Z,10.09
2023-10-19T19:48:46.975Z,10.08
2023-10-19T19:51:16.560Z,10.09
2023-10-19T19:53:45.013Z,10.08
2023-10-19T19:56:11.878Z,10.03
2023-10-19T19:58:38.910Z,9.98
2023-10-19T20:01:05.624Z,9.98
2023-10-19T20:03:33.466Z,9.98
2023-10-19T20:06:00.857Z,10.03
2023-10-19T20:08:28.301Z,10.02
2023-10-19T20:10:56.523Z,10.05
2023-10-19T20:13:24.396Z,10.09
2023-10-19T20:15:52.173Z,10.10
2023-10-19T20:18:20.457Z,10.15
2023-10-19T20:20:48.151Z,10.17
2023-10-19T20:23:15.658Z,10.13
2023-10-19T20:25:43.067Z,10.13
2023-10-19T20:28:10.414Z,10.15
2023-10-19T20:30:37.333Z,10.16
2023-10-19T20:33:06.012Z,10.22
2023-10-19T20:35:34.223Z,10.25
2023-10-19T20:38:01.249Z,10.28
2023-10-19T20:40:32.341Z,10.32
2023-10-19T20:42:59.998Z,10.32
2023-10-19T20:45:29.429Z,10.33
2023-10-19T20:47:59.109Z,10.33
2023-10-19T20:50:26.769Z,10.34
2023-10-19T20:52:56.635Z,10.29
2023-10-19T20:55:24.903Z,10.29
2023-10-19T20:57:52.098Z,10.29
2023-10-19T21:00:20.901Z,10.29
2023-10-19T21:02:48.061Z,10.30
2023-10-19T21:05:21.078Z,10.22
2023-10-19T21:07:48.239Z,10.19
2023-10-19T21:10:17.461Z,10.16
2023-10-19T21:12:47.539Z,10.13
2023-10-19T21:15:15.391Z,10.08
2023-10-19T21:17:54.902Z,10.10
2023-10-19T21:20:21.871Z,10.05
2023-10-19T21:22:50.238Z,10.06
2023-10-19T21:25:18.044Z,10.03
2023-10-19T21:27:45.707Z,10.05
2023-10-19T21:30:14.480Z,9.99
2023-10-19T21:32:43.027Z,9.98
2023-10-19T21:35:13.197Z,9.99
2023-10-19T21:37:39.924Z,9.94
2023-10-19T21:40:07.486Z,9.86
2023-10-19T21:42:34.282Z,9.86
2023-10-19T21:45:01.142Z,9.85
2023-10-19T21:47:27.896Z,9.88
2023-10-19T21:49:54.775Z,9.85
2023-10-19T21:52:27.571Z,9.82
2023-10-19T21:54:57.178Z,9.79
2023-10-19T21:57:23.933Z,9.77
2023-10-19T21:59:50.666Z,9.75
2023-10-19T22:02:17.449Z,9.74
2023-10-19T22:04:45.818Z,9.67
2023-10-19T22:07:15.314Z,9.65
2023-10-19T22:09:42.481Z,9.65
2023-10-19T22:12:11.325Z,9.59
2023-10-19T22:14:38.311Z,9.59
2023-10-19T22:17:06.639Z,9.57
2023-10-19T22:19:33.587Z,9.55
2023-10-19T22:22:00.358Z,9.48
2023-10-19T22:24:27.069Z,9.47
2023-10-19T22:26:53.834Z,9.44
2023-10-19T22:29:20.714Z,9.43
2023-10-19T22:31:47.995Z,9.41
2023-10-19T22:34:14.889Z,9.40
2023-10-19T22:36:44.444Z,9.41
2023-10-19T22:39:11.189Z,9.33
2023-10-19T22:41:38.562Z,9.33
2023-10-19T22:44:05.836Z,9.33
2023-10-19T22:46:32.792Z,9.31
2023-10-19T22:48:59.692Z,9.34
2023-10-19T22:51:26.762Z,9.34
2023-10-19T22:53:53.497Z,9.33
2023-10-19T22:56:20.285Z,9.31
2023-10-19T22:58:47.099Z,9.33
2023-10-19T23:01:14.315Z,9.30
2023-10-19T23:03:45.046Z,9.27
2023-10-19T23:06:11.839Z,9.30
2023-10-19T23:08:41.743Z,9.31
2023-10-19T23:11:14.585Z,9.29
2023-10-19T23:13:45.269Z,9.26
2023-10-19T23:16:15.498Z,9.27
2023-10-19T23:18:47.668Z,9.27
2023-10-19T23:21:16.056Z,9.22
2023-10-19T23:23:44.643Z,9.20
2023-10-19T23:26:11.711Z,9.15
2023-10-19T23:28:38.482Z,9.15
2023-10-19T23:31:08.824Z,9.10
2023-10-19T23:33:35.638Z,9.13
2023-10-19T23:36:03.807Z,9.10
2023-10-19T23:38:30.666Z,9.10
2023-10-19T23:40:57.659Z,9.06
2023-10-19T23:43:25.763Z,9.06
2023-10-19T23:45:52.636Z,9.03
2023-10-19T23:48:21.508Z,9.03
2023-10-19T23:50:49.049Z,8.98
2023-10-19T23:53:17.661Z,9.00
2023-10-19T23:55:45.187Z,8.99
2023-10-19T23:58:11.903Z,8.96
